Terminal Aerodrome Forecast
Issued by NWS Sterling, VA

Current Version | Previous Version | Text Only | Print | Product List | Glossary Off
Versions: 1 2 3 4 5 6 7 8 9 10 11 12 13 14 15 16 17 18 19 20 21 22 23

000
FTUS41 KLWX 182031 AAC
TAFDCA
TAF AMD
KDCA 182031Z 1821/1918 04010KT P6SM BKN035
      TEMPO 1821/1822 BKN025
     FM190100 01006KT P6SM FEW015 SCT035
     FM190600 01008KT P6SM BKN015
     FM191500 36010G18KT P6SM SCT050 BKN120=

USA.gov is the U.S. government's official web portal to all federal, state and local government web resources and services.